sensor_id;sensor_type;location;lat;lon;timestamp;P1;durP1;ratioP1;P2;durP2;ratioP2
15402;SDS011;7799;53.478;10.170;2023-07-29T00:00:38;1.37;;;1.20;;
15402;SDS011;7799;53.478;10.170;2023-07-29T00:03:06;1.23;;;1.10;;
15402;SDS011;7799;53.478;10.170;2023-07-29T00:05:33;1.73;;;1.03;;
15402;SDS011;7799;53.478;10.170;2023-07-29T00:07:59;1.10;;;1.10;;
15402;SDS011;7799;53.478;10.170;2023-07-29T00:10:26;1.00;;;1.00;;
15402;SDS011;7799;53.478;10.170;2023-07-29T00:12:53;1.13;;;1.03;;
15402;SDS011;7799;53.478;10.170;2023-07-29T00:15:20;0.87;;;0.87;;
15402;SDS011;7799;53.478;10.170;2023-07-29T00:17:47;0.80;;;0.80;;
15402;SDS011;7799;53.478;10.170;2023-07-29T00:20:15;1.10;;;1.00;;
15402;SDS011;7799;53.478;10.170;2023-07-29T00:22:41;0.83;;;0.83;;
15402;SDS011;7799;53.478;10.170;2023-07-29T00:25:08;0.90;;;0.90;;
15402;SDS011;7799;53.478;10.170;2023-07-29T00:27:35;1.13;;;1.10;;
15402;SDS011;7799;53.478;10.170;2023-07-29T00:30:02;0.90;;;0.90;;
15402;SDS011;7799;53.478;10.170;2023-07-29T00:32:29;0.83;;;0.83;;
15402;SDS011;7799;53.478;10.170;2023-07-29T00:34:56;1.30;;;1.20;;
15402;SDS011;7799;53.478;10.170;2023-07-29T00:37:27;1.47;;;1.37;;
15402;SDS011;7799;53.478;10.170;2023-07-29T00:39:54;1.50;;;1.40;;
15402;SDS011;7799;53.478;10.170;2023-07-29T00:42:21;1.97;;;1.57;;
15402;SDS011;7799;53.478;10.170;2023-07-29T00:44:47;1.43;;;1.33;;
15402;SDS011;7799;53.478;10.170;2023-07-29T00:47:14;1.20;;;1.10;;
15402;SDS011;7799;53.478;10.170;2023-07-29T00:49:42;1.33;;;1.20;;
15402;SDS011;7799;53.478;10.170;2023-07-29T00:52:10;0.90;;;0.90;;
15402;SDS011;7799;53.478;10.170;2023-07-29T00:54:39;0.90;;;0.90;;
15402;SDS011;7799;53.478;10.170;2023-07-29T00:57:05;1.53;;;1.30;;
15402;SDS011;7799;53.478;10.170;2023-07-29T00:59:33;1.20;;;1.10;;
15402;SDS011;7799;53.478;10.170;2023-07-29T01:02:00;1.20;;;1.20;;
15402;SDS011;7799;53.478;10.170;2023-07-29T01:04:30;1.50;;;1.40;;
15402;SDS011;7799;53.478;10.170;2023-07-29T01:06:58;1.60;;;1.50;;
15402;SDS011;7799;53.478;10.170;2023-07-29T01:09:30;1.43;;;1.33;;
15402;SDS011;7799;53.478;10.170;2023-07-29T01:12:04;1.70;;;1.60;;
15402;SDS011;7799;53.478;10.170;2023-07-29T01:14:38;1.53;;;1.43;;
15402;SDS011;7799;53.478;10.170;2023-07-29T01:17:09;1.57;;;1.47;;
15402;SDS011;7799;53.478;10.170;2023-07-29T01:19:42;1.83;;;1.73;;
15402;SDS011;7799;53.478;10.170;2023-07-29T01:22:12;2.37;;;2.17;;
15402;SDS011;7799;53.478;10.170;2023-07-29T01:24:41;2.60;;;2.40;;
15402;SDS011;7799;53.478;10.170;2023-07-29T01:27:08;3.13;;;2.93;;
15402;SDS011;7799;53.478;10.170;2023-07-29T01:29:34;2.50;;;2.30;;
15402;SDS011;7799;53.478;10.170;2023-07-29T01:32:04;3.47;;;3.17;;
15402;SDS011;7799;53.478;10.170;2023-07-29T01:34:39;4.00;;;3.70;;
15402;SDS011;7799;53.478;10.170;2023-07-29T01:37:09;3.87;;;3.57;;
15402;SDS011;7799;53.478;10.170;2023-07-29T01:39:42;3.97;;;3.67;;
15402;SDS011;7799;53.478;10.170;2023-07-29T01:42:12;3.80;;;3.50;;
15402;SDS011;7799;53.478;10.170;2023-07-29T01:44:39;3.67;;;3.37;;
15402;SDS011;7799;53.478;10.170;2023-07-29T01:47:07;3.87;;;3.57;;
15402;SDS011;7799;53.478;10.170;2023-07-29T01:49:34;4.33;;;4.03;;
15402;SDS011;7799;53.478;10.170;2023-07-29T01:52:01;4.20;;;3.90;;
15402;SDS011;7799;53.478;10.170;2023-07-29T01:54:28;3.97;;;3.67;;
15402;SDS011;7799;53.478;10.170;2023-07-29T01:59:43;2.63;;;2.43;;
15402;SDS011;7799;53.478;10.170;2023-07-29T02:02:10;2.00;;;1.90;;
15402;SDS011;7799;53.478;10.170;2023-07-29T02:04:37;2.80;;;2.60;;
15402;SDS011;7799;53.478;10.170;2023-07-29T02:07:04;2.07;;;1.97;;
15402;SDS011;7799;53.478;10.170;2023-07-29T02:09:31;2.93;;;2.73;;
15402;SDS011;7799;53.478;10.170;2023-07-29T02:11:58;2.50;;;2.40;;
15402;SDS011;7799;53.478;10.170;2023-07-29T02:14:26;2.17;;;2.03;;
15402;SDS011;7799;53.478;10.170;2023-07-29T02:16:52;2.23;;;2.13;;
15402;SDS011;7799;53.478;10.170;2023-07-29T02:19:19;2.00;;;1.90;;
15402;SDS011;7799;53.478;10.170;2023-07-29T02:21:46;1.57;;;1.47;;
15402;SDS011;7799;53.478;10.170;2023-07-29T02:24:12;1.53;;;1.43;;
15402;SDS011;7799;53.478;10.170;2023-07-29T02:26:39;2.20;;;2.10;;
15402;SDS011;7799;53.478;10.170;2023-07-29T02:29:06;1.97;;;1.87;;
15402;SDS011;7799;53.478;10.170;2023-07-29T02:31:34;2.57;;;2.37;;
15402;SDS011;7799;53.478;10.170;2023-07-29T02:34:02;2.70;;;2.50;;
15402;SDS011;7799;53.478;10.170;2023-07-29T02:36:32;2.63;;;2.43;;
15402;SDS011;7799;53.478;10.170;2023-07-29T02:38:59;1.90;;;1.80;;
15402;SDS011;7799;53.478;10.170;2023-07-29T02:41:25;1.93;;;1.83;;
15402;SDS011;7799;53.478;10.170;2023-07-29T02:43:52;2.03;;;1.93;;
15402;SDS011;7799;53.478;10.170;2023-07-29T02:46:19;2.60;;;2.40;;
15402;SDS011;7799;53.478;10.170;2023-07-29T02:48:47;2.40;;;2.23;;
15402;SDS011;7799;53.478;10.170;2023-07-29T02:51:14;2.07;;;1.97;;
15402;SDS011;7799;53.478;10.170;2023-07-29T02:53:40;1.83;;;1.73;;
15402;SDS011;7799;53.478;10.170;2023-07-29T02:56:07;1.70;;;1.60;;
15402;SDS011;7799;53.478;10.170;2023-07-29T02:58:35;1.47;;;1.37;;
15402;SDS011;7799;53.478;10.170;2023-07-29T03:01:02;1.73;;;1.63;;
15402;SDS011;7799;53.478;10.170;2023-07-29T03:03:29;1.70;;;1.60;;
15402;SDS011;7799;53.478;10.170;2023-07-29T03:05:58;1.60;;;1.50;;
15402;SDS011;7799;53.478;10.170;2023-07-29T03:08:26;1.70;;;1.60;;
15402;SDS011;7799;53.478;10.170;2023-07-29T03:10:53;1.67;;;1.57;;
15402;SDS011;7799;53.478;10.170;2023-07-29T03:13:20;1.63;;;1.53;;
15402;SDS011;7799;53.478;10.170;2023-07-29T03:15:47;1.50;;;1.40;;
15402;SDS011;7799;53.478;10.170;2023-07-29T03:18:14;1.33;;;1.23;;
15402;SDS011;7799;53.478;10.170;2023-07-29T03:20:41;1.60;;;1.50;;
15402;SDS011;7799;53.478;10.170;2023-07-29T03:23:09;1.40;;;1.30;;
15402;SDS011;7799;53.478;10.170;2023-07-29T03:25:35;1.60;;;1.50;;
15402;SDS011;7799;53.478;10.170;2023-07-29T03:28:02;1.90;;;1.80;;
15402;SDS011;7799;53.478;10.170;2023-07-29T03:30:29;2.73;;;2.50;;
15402;SDS011;7799;53.478;10.170;2023-07-29T03:32:56;2.60;;;2.40;;
15402;SDS011;7799;53.478;10.170;2023-07-29T03:35:22;3.87;;;3.57;;
15402;SDS011;7799;53.478;10.170;2023-07-29T03:37:49;3.50;;;3.30;;
15402;SDS011;7799;53.478;10.170;2023-07-29T03:40:19;4.83;;;4.43;;
15402;SDS011;7799;53.478;10.170;2023-07-29T03:42:46;3.43;;;3.23;;
15402;SDS011;7799;53.478;10.170;2023-07-29T03:45:12;3.30;;;3.10;;
15402;SDS011;7799;53.478;10.170;2023-07-29T03:47:39;4.13;;;3.83;;
15402;SDS011;7799;53.478;10.170;2023-07-29T03:50:06;3.80;;;3.50;;
15402;SDS011;7799;53.478;10.170;2023-07-29T03:52:33;3.93;;;3.63;;
15402;SDS011;7799;53.478;10.170;2023-07-29T03:55:00;4.10;;;3.70;;
15402;SDS011;7799;53.478;10.170;2023-07-29T03:57:28;4.93;;;4.53;;
15402;SDS011;7799;53.478;10.170;2023-07-29T03:59:55;4.10;;;3.80;;
15402;SDS011;7799;53.478;10.170;2023-07-29T04:02:22;3.03;;;2.83;;
15402;SDS011;7799;53.478;10.170;2023-07-29T04:04:49;2.50;;;2.30;;
15402;SDS011;7799;53.478;10.170;2023-07-29T04:07:16;2.80;;;2.60;;
15402;SDS011;7799;53.478;10.170;2023-07-29T04:09:42;2.63;;;2.43;;
15402;SDS011;7799;53.478;10.170;2023-07-29T04:12:09;2.30;;;2.20;;
15402;SDS011;7799;53.478;10.170;2023-07-29T04:14:37;2.03;;;1.93;;
15402;SDS011;7799;53.478;10.170;2023-07-29T04:17:04;1.97;;;1.87;;
15402;SDS011;7799;53.478;10.170;2023-07-29T04:19:31;2.17;;;2.07;;
15402;SDS011;7799;53.478;10.170;2023-07-29T04:21:58;2.50;;;2.40;;
15402;SDS011;7799;53.478;10.170;2023-07-29T04:24:25;2.20;;;2.07;;
15402;SDS011;7799;53.478;10.170;2023-07-29T04:26:52;3.30;;;3.10;;
15402;SDS011;7799;53.478;10.170;2023-07-29T04:29:18;5.73;;;4.13;;
15402;SDS011;7799;53.478;10.170;2023-07-29T04:31:47;3.73;;;3.43;;
15402;SDS011;7799;53.478;10.170;2023-07-29T04:34:14;4.97;;;4.57;;
15402;SDS011;7799;53.478;10.170;2023-07-29T04:36:40;5.40;;;5.00;;
15402;SDS011;7799;53.478;10.170;2023-07-29T04:39:07;5.23;;;4.83;;
15402;SDS011;7799;53.478;10.170;2023-07-29T04:41:34;6.43;;;5.93;;
15402;SDS011;7799;53.478;10.170;2023-07-29T04:44:01;5.33;;;4.93;;
15402;SDS011;7799;53.478;10.170;2023-07-29T04:46:27;5.47;;;5.07;;
15402;SDS011;7799;53.478;10.170;2023-07-29T04:48:55;5.20;;;4.80;;
15402;SDS011;7799;53.478;10.170;2023-07-29T04:51:23;5.80;;;5.30;;
15402;SDS011;7799;53.478;10.170;2023-07-29T04:53:50;6.33;;;5.83;;
15402;SDS011;7799;53.478;10.170;2023-07-29T04:56:16;6.20;;;5.70;;
15402;SDS011;7799;53.478;10.170;2023-07-29T04:58:44;7.33;;;6.73;;
15402;SDS011;7799;53.478;10.170;2023-07-29T05:01:11;5.63;;;5.23;;
15402;SDS011;7799;53.478;10.170;2023-07-29T05:03:37;4.87;;;4.47;;
15402;SDS011;7799;53.478;10.170;2023-07-29T05:06:07;6.80;;;6.27;;
15402;SDS011;7799;53.478;10.170;2023-07-29T05:08:33;5.53;;;5.03;;
15402;SDS011;7799;53.478;10.170;2023-07-29T05:11:00;7.70;;;7.07;;
15402;SDS011;7799;53.478;10.170;2023-07-29T05:13:27;7.20;;;6.60;;
15402;SDS011;7799;53.478;10.170;2023-07-29T05:15:54;7.43;;;6.83;;
15402;SDS011;7799;53.478;10.170;2023-07-29T05:18:21;6.00;;;5.60;;
15402;SDS011;7799;53.478;10.170;2023-07-29T05:20:48;5.57;;;5.17;;
15402;SDS011;7799;53.478;10.170;2023-07-29T05:23:16;6.07;;;5.67;;
15402;SDS011;7799;53.478;10.170;2023-07-29T05:25:43;6.53;;;5.93;;
15402;SDS011;7799;53.478;10.170;2023-07-29T05:28:10;5.77;;;5.27;;
15402;SDS011;7799;53.478;10.170;2023-07-29T05:30:37;6.70;;;6.10;;
15402;SDS011;7799;53.478;10.170;2023-07-29T05:33:05;7.30;;;6.70;;
15402;SDS011;7799;53.478;10.170;2023-07-29T05:35:33;6.87;;;6.37;;
15402;SDS011;7799;53.478;10.170;2023-07-29T05:38:00;9.97;;;9.00;;
15402;SDS011;7799;53.478;10.170;2023-07-29T05:40:29;9.07;;;8.37;;
15402;SDS011;7799;53.478;10.170;2023-07-29T05:42:56;9.73;;;8.83;;
15402;SDS011;7799;53.478;10.170;2023-07-29T05:45:25;12.00;;;11.00;;
15402;SDS011;7799;53.478;10.170;2023-07-29T05:47:51;11.03;;;10.13;;
15402;SDS011;7799;53.478;10.170;2023-07-29T05:50:19;9.87;;;9.07;;
15402;SDS011;7799;53.478;10.170;2023-07-29T05:52:46;8.27;;;7.67;;
15402;SDS011;7799;53.478;10.170;2023-07-29T05:55:13;9.13;;;8.33;;
15402;SDS011;7799;53.478;10.170;2023-07-29T05:57:41;8.40;;;7.77;;
15402;SDS011;7799;53.478;10.170;2023-07-29T06:00:08;9.60;;;8.80;;
15402;SDS011;7799;53.478;10.170;2023-07-29T06:02:38;8.37;;;7.70;;
15402;SDS011;7799;53.478;10.170;2023-07-29T06:05:07;9.93;;;9.13;;
15402;SDS011;7799;53.478;10.170;2023-07-29T06:07:34;7.33;;;6.73;;
15402;SDS011;7799;53.478;10.170;2023-07-29T06:10:00;6.37;;;5.90;;
15402;SDS011;7799;53.478;10.170;2023-07-29T06:12:27;6.60;;;6.10;;
15402;SDS011;7799;53.478;10.170;2023-07-29T06:14:55;6.67;;;6.17;;
15402;SDS011;7799;53.478;10.170;2023-07-29T06:17:22;9.70;;;9.00;;
15402;SDS011;7799;53.478;10.170;2023-07-29T06:19:49;8.80;;;8.10;;
15402;SDS011;7799;53.478;10.170;2023-07-29T06:22:15;7.77;;;7.17;;
15402;SDS011;7799;53.478;10.170;2023-07-29T06:24:42;11.07;;;10.07;;
15402;SDS011;7799;53.478;10.170;2023-07-29T06:27:09;9.00;;;8.30;;
15402;SDS011;7799;53.478;10.170;2023-07-29T06:29:35;8.13;;;7.43;;
15402;SDS011;7799;53.478;10.170;2023-07-29T06:32:04;12.50;;;11.37;;
15402;SDS011;7799;53.478;10.170;2023-07-29T06:34:31;11.40;;;10.50;;
15402;SDS011;7799;53.478;10.170;2023-07-29T06:36:58;9.60;;;8.80;;
15402;SDS011;7799;53.478;10.170;2023-07-29T06:39:24;7.53;;;7.00;;
15402;SDS011;7799;53.478;10.170;2023-07-29T06:41:51;8.60;;;7.90;;
15402;SDS011;7799;53.478;10.170;2023-07-29T06:44:18;10.43;;;9.63;;
15402;SDS011;7799;53.478;10.170;2023-07-29T06:46:44;12.40;;;11.40;;
15402;SDS011;7799;53.478;10.170;2023-07-29T06:49:12;11.13;;;10.23;;
15402;SDS011;7799;53.478;10.170;2023-07-29T06:51:39;11.83;;;10.90;;
15402;SDS011;7799;53.478;10.170;2023-07-29T06:54:06;10.80;;;10.00;;
15402;SDS011;7799;53.478;10.170;2023-07-29T06:56:32;9.83;;;9.03;;
15402;SDS011;7799;53.478;10.170;2023-07-29T06:58:59;10.37;;;9.57;;
15402;SDS011;7799;53.478;10.170;2023-07-29T07:01:25;8.73;;;8.03;;
15402;SDS011;7799;53.478;10.170;2023-07-29T07:03:52;9.43;;;8.73;;
15402;SDS011;7799;53.478;10.170;2023-07-29T07:06:21;9.00;;;8.33;;
15402;SDS011;7799;53.478;10.170;2023-07-29T07:08:49;7.53;;;6.93;;
15402;SDS011;7799;53.478;10.170;2023-07-29T07:11:16;7.07;;;6.50;;
15402;SDS011;7799;53.478;10.170;2023-07-29T07:13:44;8.00;;;7.20;;
15402;SDS011;7799;53.478;10.170;2023-07-29T07:16:10;7.50;;;6.90;;
15402;SDS011;7799;53.478;10.170;2023-07-29T07:18:37;6.37;;;5.93;;
15402;SDS011;7799;53.478;10.170;2023-07-29T07:21:04;6.37;;;5.87;;
15402;SDS011;7799;53.478;10.170;2023-07-29T07:23:32;7.50;;;6.90;;
15402;SDS011;7799;53.478;10.170;2023-07-29T07:25:58;6.37;;;5.87;;
15402;SDS011;7799;53.478;10.170;2023-07-29T07:28:25;6.17;;;5.67;;
15402;SDS011;7799;53.478;10.170;2023-07-29T07:30:51;4.80;;;4.40;;
15402;SDS011;7799;53.478;10.170;2023-07-29T07:33:20;4.67;;;4.37;;
15402;SDS011;7799;53.478;10.170;2023-07-29T07:35:47;5.00;;;4.60;;
15402;SDS011;7799;53.478;10.170;2023-07-29T07:38:14;4.93;;;4.53;;
15402;SDS011;7799;53.478;10.170;2023-07-29T07:40:42;4.10;;;3.80;;
15402;SDS011;7799;53.478;10.170;2023-07-29T07:43:09;3.93;;;3.63;;
15402;SDS011;7799;53.478;10.170;2023-07-29T07:45:35;3.57;;;3.37;;
15402;SDS011;7799;53.478;10.170;2023-07-29T07:48:02;3.10;;;2.90;;
15402;SDS011;7799;53.478;10.170;2023-07-29T07:50:29;3.03;;;2.83;;
15402;SDS011;7799;53.478;10.170;2023-07-29T07:52:56;2.80;;;2.60;;
15402;SDS011;7799;53.478;10.170;2023-07-29T07:55:23;3.23;;;2.97;;
15402;SDS011;7799;53.478;10.170;2023-07-29T07:57:51;4.73;;;4.40;;
15402;SDS011;7799;53.478;10.170;2023-07-29T08:00:17;4.37;;;4.07;;
15402;SDS011;7799;53.478;10.170;2023-07-29T08:02:45;4.90;;;4.50;;
15402;SDS011;7799;53.478;10.170;2023-07-29T08:05:11;4.03;;;3.73;;
15402;SDS011;7799;53.478;10.170;2023-07-29T08:07:38;4.50;;;4.20;;
15402;SDS011;7799;53.478;10.170;2023-07-29T08:10:05;4.80;;;4.40;;
15402;SDS011;7799;53.478;10.170;2023-07-29T08:12:33;3.70;;;3.50;;
15402;SDS011;7799;53.478;10.170;2023-07-29T08:15:01;4.67;;;4.37;;
15402;SDS011;7799;53.478;10.170;2023-07-29T08:17:28;3.80;;;3.60;;
15402;SDS011;7799;53.478;10.170;2023-07-29T08:19:54;4.67;;;4.37;;
15402;SDS011;7799;53.478;10.170;2023-07-29T08:22:21;4.73;;;4.37;;
15402;SDS011;7799;53.478;10.170;2023-07-29T08:24:48;3.87;;;3.67;;
15402;SDS011;7799;53.478;10.170;2023-07-29T08:27:14;4.53;;;4.23;;
15402;SDS011;7799;53.478;10.170;2023-07-29T08:29:41;5.17;;;4.73;;
15402;SDS011;7799;53.478;10.170;2023-07-29T08:32:09;4.40;;;4.10;;
15402;SDS011;7799;53.478;10.170;2023-07-29T08:34:35;4.40;;;4.20;;
15402;SDS011;7799;53.478;10.170;2023-07-29T08:37:02;4.90;;;4.60;;
15402;SDS011;7799;53.478;10.170;2023-07-29T08:39:29;4.30;;;4.00;;
15402;SDS011;7799;53.478;10.170;2023-07-29T08:41:57;4.20;;;3.90;;
15402;SDS011;7799;53.478;10.170;2023-07-29T08:44:29;4.33;;;4.03;;
15402;SDS011;7799;53.478;10.170;2023-07-29T08:46:57;4.93;;;4.53;;
15402;SDS011;7799;53.478;10.170;2023-07-29T08:49:27;5.60;;;5.20;;
15402;SDS011;7799;53.478;10.170;2023-07-29T08:51:55;4.40;;;4.10;;
15402;SDS011;7799;53.478;10.170;2023-07-29T08:54:22;4.37;;;4.07;;
15402;SDS011;7799;53.478;10.170;2023-07-29T08:56:49;3.90;;;3.70;;
15402;SDS011;7799;53.478;10.170;2023-07-29T08:59:16;3.67;;;3.37;;
15402;SDS011;7799;53.478;10.170;2023-07-29T09:01:43;5.00;;;4.70;;
15402;SDS011;7799;53.478;10.170;2023-07-29T09:04:10;5.80;;;5.40;;
15402;SDS011;7799;53.478;10.170;2023-07-29T09:06:38;5.43;;;5.03;;
15402;SDS011;7799;53.478;10.170;2023-07-29T09:09:06;4.50;;;4.20;;
15402;SDS011;7799;53.478;10.170;2023-07-29T09:11:34;5.50;;;5.10;;
15402;SDS011;7799;53.478;10.170;2023-07-29T09:14:00;5.27;;;4.87;;
15402;SDS011;7799;53.478;10.170;2023-07-29T09:16:27;4.57;;;4.27;;
15402;SDS011;7799;53.478;10.170;2023-07-29T09:18:54;4.50;;;4.20;;
15402;SDS011;7799;53.478;10.170;2023-07-29T09:21:22;4.27;;;3.97;;
15402;SDS011;7799;53.478;10.170;2023-07-29T09:23:51;4.60;;;4.30;;
15402;SDS011;7799;53.478;10.170;2023-07-29T09:26:21;4.43;;;4.13;;
15402;SDS011;7799;53.478;10.170;2023-07-29T09:28:51;4.17;;;3.93;;
15402;SDS011;7799;53.478;10.170;2023-07-29T09:31:18;3.30;;;3.10;;
15402;SDS011;7799;53.478;10.170;2023-07-29T09:33:46;3.83;;;3.63;;
15402;SDS011;7799;53.478;10.170;2023-07-29T09:36:12;4.30;;;4.00;;
15402;SDS011;7799;53.478;10.170;2023-07-29T09:38:39;4.67;;;4.37;;
15402;SDS011;7799;53.478;10.170;2023-07-29T09:41:09;4.63;;;4.33;;
15402;SDS011;7799;53.478;10.170;2023-07-29T09:43:38;5.03;;;4.63;;
15402;SDS011;7799;53.478;10.170;2023-07-29T09:46:05;5.00;;;4.60;;
15402;SDS011;7799;53.478;10.170;2023-07-29T09:48:32;4.80;;;4.40;;
15402;SDS011;7799;53.478;10.170;2023-07-29T09:50:59;4.30;;;4.00;;
15402;SDS011;7799;53.478;10.170;2023-07-29T09:53:26;4.70;;;4.40;;
15402;SDS011;7799;53.478;10.170;2023-07-29T09:55:53;4.47;;;4.17;;
15402;SDS011;7799;53.478;10.170;2023-07-29T09:58:26;4.10;;;3.80;;
15402;SDS011;7799;53.478;10.170;2023-07-29T10:00:53;4.13;;;3.83;;
15402;SDS011;7799;53.478;10.170;2023-07-29T10:03:20;4.00;;;3.70;;
15402;SDS011;7799;53.478;10.170;2023-07-29T10:05:47;3.80;;;3.60;;
15402;SDS011;7799;53.478;10.170;2023-07-29T10:08:14;3.83;;;3.53;;
15402;SDS011;7799;53.478;10.170;2023-07-29T10:10:41;3.60;;;3.40;;
15402;SDS011;7799;53.478;10.170;2023-07-29T10:13:08;3.20;;;3.00;;
15402;SDS011;7799;53.478;10.170;2023-07-29T10:15:36;3.50;;;3.30;;
15402;SDS011;7799;53.478;10.170;2023-07-29T10:18:03;3.30;;;3.10;;
15402;SDS011;7799;53.478;10.170;2023-07-29T10:20:31;3.20;;;3.00;;
15402;SDS011;7799;53.478;10.170;2023-07-29T10:22:59;3.10;;;2.90;;
15402;SDS011;7799;53.478;10.170;2023-07-29T10:25:32;3.28;;;3.08;;
15402;SDS011;7799;53.478;10.170;2023-07-29T10:28:07;3.00;;;2.80;;
15402;SDS011;7799;53.478;10.170;2023-07-29T10:30:34;2.90;;;2.70;;
15402;SDS011;7799;53.478;10.170;2023-07-29T10:33:03;2.70;;;2.60;;
15402;SDS011;7799;53.478;10.170;2023-07-29T10:35:31;2.83;;;2.63;;
15402;SDS011;7799;53.478;10.170;2023-07-29T10:37:59;2.90;;;2.70;;
15402;SDS011;7799;53.478;10.170;2023-07-29T10:40:27;3.38;;;3.08;;
15402;SDS011;7799;53.478;10.170;2023-07-29T10:43:11;3.03;;;2.83;;
15402;SDS011;7799;53.478;10.170;2023-07-29T10:45:40;3.25;;;3.05;;
15402;SDS011;7799;53.478;10.170;2023-07-29T10:48:11;3.38;;;3.17;;
15402;SDS011;7799;53.478;10.170;2023-07-29T10:50:38;3.40;;;3.20;;
15402;SDS011;7799;53.478;10.170;2023-07-29T10:53:05;2.40;;;2.30;;
15402;SDS011;7799;53.478;10.170;2023-07-29T10:55:32;2.30;;;2.20;;
15402;SDS011;7799;53.478;10.170;2023-07-29T10:58:11;2.13;;;2.03;;
15402;SDS011;7799;53.478;10.170;2023-07-29T11:00:39;2.38;;;2.28;;
15402;SDS011;7799;53.478;10.170;2023-07-29T11:03:08;2.47;;;2.38;;
15402;SDS011;7799;53.478;10.170;2023-07-29T11:05:43;2.35;;;2.20;;
15402;SDS011;7799;53.478;10.170;2023-07-29T11:08:18;1.90;;;1.80;;
15402;SDS011;7799;53.478;10.170;2023-07-29T11:10:57;2.55;;;2.35;;
15402;SDS011;7799;53.478;10.170;2023-07-29T11:13:25;2.60;;;2.50;;
15402;SDS011;7799;53.478;10.170;2023-07-29T11:15:53;2.33;;;2.13;;
15402;SDS011;7799;53.478;10.170;2023-07-29T11:18:20;1.90;;;1.80;;
15402;SDS011;7799;53.478;10.170;2023-07-29T11:20:48;1.80;;;1.70;;
15402;SDS011;7799;53.478;10.170;2023-07-29T11:23:15;1.80;;;1.70;;
15402;SDS011;7799;53.478;10.170;2023-07-29T11:25:42;2.05;;;1.95;;
15402;SDS011;7799;53.478;10.170;2023-07-29T11:28:08;2.00;;;1.90;;
15402;SDS011;7799;53.478;10.170;2023-07-29T11:30:36;1.83;;;1.73;;
15402;SDS011;7799;53.478;10.170;2023-07-29T11:33:05;2.17;;;2.00;;
15402;SDS011;7799;53.478;10.170;2023-07-29T11:35:31;2.10;;;2.00;;
15402;SDS011;7799;53.478;10.170;2023-07-29T11:38:00;2.08;;;1.98;;
15402;SDS011;7799;53.478;10.170;2023-07-29T11:40:26;2.35;;;2.22;;
15402;SDS011;7799;53.478;10.170;2023-07-29T11:42:54;2.60;;;2.40;;
15402;SDS011;7799;53.478;10.170;2023-07-29T11:45:23;1.80;;;1.70;;
15402;SDS011;7799;53.478;10.170;2023-07-29T11:47:49;2.15;;;2.05;;
15402;SDS011;7799;53.478;10.170;2023-07-29T11:50:16;1.85;;;1.75;;
15402;SDS011;7799;53.478;10.170;2023-07-29T11:52:44;2.08;;;1.98;;
15402;SDS011;7799;53.478;10.170;2023-07-29T11:55:13;1.98;;;1.88;;
15402;SDS011;7799;53.478;10.170;2023-07-29T11:57:40;2.20;;;2.10;;
15402;SDS011;7799;53.478;10.170;2023-07-29T12:00:08;2.53;;;2.42;;
15402;SDS011;7799;53.478;10.170;2023-07-29T12:02:37;2.50;;;2.40;;
15402;SDS011;7799;53.478;10.170;2023-07-29T12:05:05;2.30;;;2.20;;
15402;SDS011;7799;53.478;10.170;2023-07-29T12:07:33;2.17;;;2.08;;
15402;SDS011;7799;53.478;10.170;2023-07-29T12:10:00;2.20;;;2.10;;
15402;SDS011;7799;53.478;10.170;2023-07-29T12:12:29;2.10;;;2.00;;
15402;SDS011;7799;53.478;10.170;2023-07-29T12:14:56;1.95;;;1.85;;
15402;SDS011;7799;53.478;10.170;2023-07-29T12:17:23;1.90;;;1.80;;
15402;SDS011;7799;53.478;10.170;2023-07-29T12:19:53;2.10;;;2.00;;
15402;SDS011;7799;53.478;10.170;2023-07-29T12:22:20;2.50;;;2.30;;
15402;SDS011;7799;53.478;10.170;2023-07-29T12:24:47;2.60;;;2.40;;
15402;SDS011;7799;53.478;10.170;2023-07-29T12:27:17;2.70;;;2.50;;
15402;SDS011;7799;53.478;10.170;2023-07-29T12:29:48;2.80;;;2.60;;
15402;SDS011;7799;53.478;10.170;2023-07-29T12:32:18;2.58;;;2.38;;
15402;SDS011;7799;53.478;10.170;2023-07-29T12:34:45;2.17;;;2.08;;
15402;SDS011;7799;53.478;10.170;2023-07-29T12:37:11;2.10;;;2.00;;
15402;SDS011;7799;53.478;10.170;2023-07-29T12:39:39;2.20;;;2.10;;
15402;SDS011;7799;53.478;10.170;2023-07-29T12:42:06;2.00;;;1.90;;
15402;SDS011;7799;53.478;10.170;2023-07-29T12:44:34;2.28;;;2.17;;
15402;SDS011;7799;53.478;10.170;2023-07-29T12:47:03;1.70;;;1.60;;
15402;SDS011;7799;53.478;10.170;2023-07-29T12:49:31;1.70;;;1.60;;
15402;SDS011;7799;53.478;10.170;2023-07-29T12:51:58;1.90;;;1.80;;
15402;SDS011;7799;53.478;10.170;2023-07-29T12:54:25;1.77;;;1.67;;
15402;SDS011;7799;53.478;10.170;2023-07-29T12:56:51;1.70;;;1.60;;
15402;SDS011;7799;53.478;10.170;2023-07-29T12:59:18;1.70;;;1.60;;
15402;SDS011;7799;53.478;10.170;2023-07-29T13:01:45;1.50;;;1.40;;
15402;SDS011;7799;53.478;10.170;2023-07-29T13:04:13;1.50;;;1.40;;
15402;SDS011;7799;53.478;10.170;2023-07-29T13:06:39;1.15;;;1.15;;
15402;SDS011;7799;53.478;10.170;2023-07-29T13:09:06;1.20;;;1.20;;
15402;SDS011;7799;53.478;10.170;2023-07-29T13:11:33;1.40;;;1.30;;
15402;SDS011;7799;53.478;10.170;2023-07-29T13:13:59;1.30;;;1.25;;
15402;SDS011;7799;53.478;10.170;2023-07-29T13:16:26;1.23;;;1.23;;
15402;SDS011;7799;53.478;10.170;2023-07-29T13:18:53;1.17;;;1.17;;
15402;SDS011;7799;53.478;10.170;2023-07-29T13:21:21;1.20;;;1.20;;
15402;SDS011;7799;53.478;10.170;2023-07-29T13:23:48;1.60;;;1.50;;
15402;SDS011;7799;53.478;10.170;2023-07-29T13:26:15;1.10;;;1.10;;
15402;SDS011;7799;53.478;10.170;2023-07-29T13:28:41;1.20;;;1.20;;
15402;SDS011;7799;53.478;10.170;2023-07-29T13:31:08;1.25;;;1.20;;
15402;SDS011;7799;53.478;10.170;2023-07-29T13:33:35;1.08;;;1.08;;
15402;SDS011;7799;53.478;10.170;2023-07-29T13:36:01;1.13;;;1.13;;
15402;SDS011;7799;53.478;10.170;2023-07-29T13:38:29;1.20;;;1.20;;
15402;SDS011;7799;53.478;10.170;2023-07-29T13:40:56;1.10;;;1.10;;
15402;SDS011;7799;53.478;10.170;2023-07-29T13:43:23;1.27;;;1.17;;
15402;SDS011;7799;53.478;10.170;2023-07-29T13:45:49;1.48;;;1.38;;
15402;SDS011;7799;53.478;10.170;2023-07-29T13:48:17;1.40;;;1.30;;
15402;SDS011;7799;53.478;10.170;2023-07-29T13:50:44;1.50;;;1.40;;
15402;SDS011;7799;53.478;10.170;2023-07-29T13:53:10;1.20;;;1.20;;
15402;SDS011;7799;53.478;10.170;2023-07-29T13:55:38;1.50;;;1.40;;
15402;SDS011;7799;53.478;10.170;2023-07-29T13:58:05;1.58;;;1.48;;
15402;SDS011;7799;53.478;10.170;2023-07-29T14:00:31;1.65;;;1.55;;
15402;SDS011;7799;53.478;10.170;2023-07-29T14:02:58;2.03;;;1.92;;
15402;SDS011;7799;53.478;10.170;2023-07-29T14:05:25;1.70;;;1.60;;
15402;SDS011;7799;53.478;10.170;2023-07-29T14:07:52;1.75;;;1.65;;
15402;SDS011;7799;53.478;10.170;2023-07-29T14:10:18;1.60;;;1.50;;
15402;SDS011;7799;53.478;10.170;2023-07-29T14:12:47;1.50;;;1.40;;
15402;SDS011;7799;53.478;10.170;2023-07-29T14:15:13;1.50;;;1.40;;
15402;SDS011;7799;53.478;10.170;2023-07-29T14:17:40;2.00;;;1.90;;
15402;SDS011;7799;53.478;10.170;2023-07-29T14:20:07;1.75;;;1.65;;
15402;SDS011;7799;53.478;10.170;2023-07-29T14:22:35;1.40;;;1.40;;
15402;SDS011;7799;53.478;10.170;2023-07-29T14:25:05;1.60;;;1.50;;
15402;SDS011;7799;53.478;10.170;2023-07-29T14:27:32;1.33;;;1.30;;
15402;SDS011;7799;53.478;10.170;2023-07-29T14:30:00;1.40;;;1.30;;
15402;SDS011;7799;53.478;10.170;2023-07-29T14:32:27;1.45;;;1.35;;
15402;SDS011;7799;53.478;10.170;2023-07-29T14:34:54;1.30;;;1.20;;
15402;SDS011;7799;53.478;10.170;2023-07-29T14:37:20;1.40;;;1.30;;
15402;SDS011;7799;53.478;10.170;2023-07-29T14:39:47;1.40;;;1.30;;
15402;SDS011;7799;53.478;10.170;2023-07-29T14:42:14;1.27;;;1.17;;
15402;SDS011;7799;53.478;10.170;2023-07-29T14:44:41;1.45;;;1.35;;
15402;SDS011;7799;53.478;10.170;2023-07-29T14:47:09;1.10;;;1.10;;
15402;SDS011;7799;53.478;10.170;2023-07-29T14:49:35;1.33;;;1.20;;
15402;SDS011;7799;53.478;10.170;2023-07-29T14:52:02;1.30;;;1.20;;